Time;durP1;ratioP1;P1;durP2;ratioP2;P2;SDS_P1;SDS_P2;PMS_P1;PMS_P2;Temp;Humidity;BMP_temperature;BMP_pressure;BME280_temperature;BME280_humidity;BME280_pressure;Samples;Min_cycle;Max_cycle;Signal;HPM_P1;HPM_P2
2023/02/26 00:00:20;;;;;;;7.28;2.08;;;3.30;99.90;;;;;;5003582;28;20036;-90
2023/02/26 00:02:47;;;;;;;8.82;2.58;;;3.30;99.90;;;;;;5019968;28;20025;-90
2023/02/26 00:05:17;;;;;;;10.85;2.33;;;3.20;99.90;;;;;;5036803;28;20021;-90
2023/02/26 00:07:43;;;;;;;10.73;2.40;;;3.20;99.90;;;;;;5019923;28;20057;-90
2023/02/26 00:10:11;;;;;;;8.30;2.67;;;3.20;99.90;;;;;;5019800;28;20496;-90
2023/02/26 00:12:37;;;;;;;10.35;2.33;;;3.20;99.90;;;;;;5020080;28;20029;-90
2023/02/26 00:15:05;;;;;;;14.82;3.97;;;3.20;99.90;;;;;;5020049;28;20108;-90
2023/02/26 00:17:36;;;;;;;7.78;2.08;;;3.20;99.90;;;;;;5003727;28;20025;-89
2023/02/26 00:20:03;;;;;;;9.23;2.25;;;3.10;99.90;;;;;;5037501;28;20458;-90
2023/02/26 00:22:29;;;;;;;5.85;1.90;;;3.10;99.90;;;;;;5019551;28;20488;-90
2023/02/26 00:24:57;;;;;;;9.20;2.67;;;3.10;99.90;;;;;;5019621;28;20021;-90
2023/02/26 00:27:23;;;;;;;10.82;2.83;;;3.10;99.90;;;;;;5015593;28;20103;-89
2023/02/26 00:29:49;;;;;;;7.43;2.13;;;3.10;99.90;;;;;;5039822;28;20025;-90
2023/02/26 00:32:16;;;;;;;10.55;2.20;;;3.10;99.90;;;;;;5056248;28;20021;-89
2023/02/26 00:34:47;;;;;;;8.35;1.98;;;3.10;99.90;;;;;;5039617;28;20053;-90
2023/02/26 00:37:37;;;;;;;7.18;2.30;;;3.00;99.90;;;;;;5039628;28;20111;-90
2023/02/26 00:40:24;;;;;;;9.68;2.42;;;3.10;99.90;;;;;;5057407;28;20078;-89
2023/02/26 00:42:50;;;;;;;8.00;2.22;;;3.00;99.90;;;;;;5039690;28;20107;-90
2023/02/26 00:45:16;;;;;;;8.05;1.98;;;3.00;99.90;;;;;;5039262;28;20469;-90
2023/02/26 00:48:06;;;;;;;7.22;2.15;;;3.00;99.90;;;;;;5039354;28;20049;-90
2023/02/26 00:50:32;;;;;;;8.15;2.60;;;3.00;99.90;;;;;;5039139;28;20025;-89
2023/02/26 00:53:02;;;;;;;9.93;2.45;;;3.00;99.90;;;;;;5038788;28;20074;-89
2023/02/26 00:55:29;;;;;;;6.00;1.70;;;2.90;99.90;;;;;;5038613;28;20024;-90
2023/02/26 00:57:55;;;;;;;5.47;1.90;;;2.90;99.90;;;;;;5055757;28;20376;-90
2023/02/26 01:00:23;;;;;;;9.73;2.20;;;2.90;99.90;;;;;;5038980;28;20136;-90
2023/02/26 01:02:49;;;;;;;8.05;1.90;;;2.90;99.90;;;;;;5038605;28;20025;-90
2023/02/26 01:05:16;;;;;;;8.30;1.92;;;2.90;99.90;;;;;;5040553;28;20033;-89
2023/02/26 01:08:04;;;;;;;5.70;1.67;;;2.90;99.90;;;;;;5047844;28;20048;-91
2023/02/26 01:10:30;;;;;;;6.00;1.70;;;2.90;99.90;;;;;;5038394;28;20025;-91
2023/02/26 01:12:56;;;;;;;7.63;1.65;;;2.80;99.90;;;;;;5044174;28;20005;-91
2023/02/26 01:15:32;;;;;;;6.10;1.73;;;2.80;99.90;;;;;;5037997;28;20487;-90
2023/02/26 01:18:08;;;;;;;8.82;1.65;;;2.80;99.90;;;;;;5039135;28;20021;-90
2023/02/26 01:20:43;;;;;;;9.52;1.75;;;2.80;99.90;;;;;;5038112;28;20078;-91
2023/02/26 01:23:15;;;;;;;7.93;1.92;;;2.80;99.90;;;;;;5038295;28;20469;-90
2023/02/26 01:25:59;;;;;;;6.53;2.10;;;2.80;99.90;;;;;;5038426;28;20074;-91
2023/02/26 01:28:26;;;;;;;6.95;2.03;;;2.80;99.90;;;;;;5038680;28;20040;-91
2023/02/26 01:31:02;;;;;;;6.13;1.63;;;2.70;99.90;;;;;;5038129;28;20389;-90
2023/02/26 01:33:39;;;;;;;7.93;1.60;;;2.80;99.90;;;;;;5055938;28;20029;-90
2023/02/26 01:36:26;;;;;;;4.88;1.42;;;2.80;99.90;;;;;;5038434;28;20021;-90
2023/02/26 01:39:01;;;;;;;7.40;1.98;;;2.70;99.90;;;;;;5038362;28;20443;-91
2023/02/26 01:41:41;;;;;;;5.63;1.50;;;2.80;99.90;;;;;;5038025;28;20029;-90
2023/02/26 01:44:10;;;;;;;12.30;1.77;;;2.80;99.90;;;;;;5038132;28;20029;-90
2023/02/26 01:47:10;;;;;;;8.57;1.50;;;2.70;99.90;;;;;;5038038;28;20410;-90
2023/02/26 01:49:37;;;;;;;5.43;1.60;;;2.70;99.90;;;;;;5037751;28;20903;-89
2023/02/26 01:52:44;;;;;;;7.35;1.60;;;2.70;99.90;;;;;;5055661;28;20259;-90
2023/02/26 01:55:13;;;;;;;4.03;1.40;;;2.70;99.90;;;;;;5037882;28;20039;-91
2023/02/26 01:57:41;;;;;;;8.32;1.98;;;2.70;99.90;;;;;;5037614;28;20421;-90
2023/02/26 02:00:08;;;;;;;7.10;1.70;;;2.70;99.90;;;;;;5037849;28;20028;-90
2023/02/26 02:02:34;;;;;;;10.50;1.70;;;2.70;99.90;;;;;;5037349;28;20502;-90
2023/02/26 02:05:22;;;;;;;9.73;1.75;;;2.70;99.90;;;;;;5038054;28;20033;-90
2023/02/26 02:07:49;;;;;;;8.23;1.95;;;2.60;99.90;;;;;;5037063;28;20031;-90
2023/02/26 02:10:15;;;;;;;5.32;1.77;;;2.60;99.90;;;;;;5037597;28;20033;-90
2023/02/26 02:12:44;;;;;;;15.45;3.22;;;2.60;99.90;;;;;;5037687;28;20167;-90
2023/02/26 02:15:40;;;;;;;14.70;3.00;;;2.60;99.90;;;;;;5037746;28;20046;-90
2023/02/26 02:18:53;;;;;;;6.05;1.42;;;2.60;99.90;;;;;;5037788;28;20032;-91
2023/02/26 02:21:21;;;;;;;9.85;1.80;;;2.50;99.90;;;;;;4959032;28;20073;-87
2023/02/26 02:23:56;;;;;;;6.45;1.73;;;2.50;99.90;;;;;;5028872;28;20039;-90
2023/02/26 02:26:53;;;;;;;10.32;2.35;;;2.50;99.90;;;;;;5037948;28;20061;-92
2023/02/26 02:29:31;;;;;;;6.82;1.50;;;2.50;99.90;;;;;;5046253;28;20088;-89
2023/02/26 02:31:59;;;;;;;6.30;2.17;;;2.40;99.90;;;;;;5061023;28;20081;-92
2023/02/26 02:34:43;;;;;;;8.60;1.77;;;2.40;99.90;;;;;;5060634;28;20032;-93
2023/02/26 02:37:19;;;;;;;12.25;1.90;;;2.40;99.90;;;;;;5058646;28;20028;-91
2023/02/26 02:40:03;;;;;;;6.50;1.88;;;2.40;99.90;;;;;;5058416;28;20025;-90
2023/02/26 02:42:52;;;;;;;9.13;1.67;;;2.30;99.90;;;;;;5050876;28;20384;-90
2023/02/26 02:45:30;;;;;;;10.55;1.70;;;2.30;99.90;;;;;;5037592;28;20053;-90
2023/02/26 02:48:02;;;;;;;5.15;1.30;;;2.30;99.90;;;;;;5037338;28;20029;-91
2023/02/26 02:50:40;;;;;;;5.70;1.90;;;2.30;99.90;;;;;;5038224;28;20025;-90
2023/02/26 02:53:20;;;;;;;9.63;1.70;;;2.20;99.90;;;;;;5037240;28;20195;-91
2023/02/26 02:55:56;;;;;;;9.52;1.65;;;2.20;99.90;;;;;;5037115;28;20052;-90
2023/02/26 02:58:28;;;;;;;6.47;1.63;;;2.20;99.90;;;;;;5036833;28;20025;-91
2023/02/26 03:00:58;;;;;;;6.05;1.35;;;2.20;99.90;;;;;;5036880;28;20025;-91
2023/02/26 03:03:41;;;;;;;8.52;1.70;;;2.20;99.90;;;;;;5036681;28;20029;-91
2023/02/26 03:06:07;;;;;;;9.77;1.80;;;2.20;99.90;;;;;;5036989;28;20029;-90
2023/02/26 03:08:37;;;;;;;7.25;2.97;;;2.10;99.90;;;;;;5037036;28;20376;-91
2023/02/26 03:11:07;;;;;;;6.18;1.92;;;2.10;99.90;;;;;;5037480;28;20062;-92
2023/02/26 03:13:39;;;;;;;6.55;1.40;;;2.10;99.90;;;;;;5042732;28;20029;-91
2023/02/26 03:16:25;;;;;;;5.82;1.58;;;2.10;99.90;;;;;;5037016;28;20095;-88
2023/02/26 03:19:14;;;;;;;8.98;1.88;;;2.10;99.90;;;;;;5024495;28;20072;-88
2023/02/26 03:21:48;;;;;;;9.23;2.25;;;2.10;99.90;;;;;;5040233;28;20476;-89
2023/02/26 03:24:38;;;;;;;7.60;1.50;;;2.00;99.90;;;;;;5040449;28;20086;-89
2023/02/26 03:27:15;;;;;;;9.63;1.90;;;2.00;99.90;;;;;;5040837;28;20041;-89
2023/02/26 03:29:59;;;;;;;6.05;1.33;;;2.00;99.90;;;;;;5040556;28;20075;-89
2023/02/26 03:32:54;;;;;;;8.90;1.60;;;1.90;99.90;;;;;;5058706;28;20040;-89
2023/02/26 03:35:43;;;;;;;11.80;2.75;;;2.00;99.90;;;;;;5041306;28;20017;-88
2023/02/26 03:38:37;;;;;;;7.40;1.70;;;1.90;99.90;;;;;;5041369;28;20532;-89
2023/02/26 03:41:21;;;;;;;6.93;1.35;;;1.90;99.90;;;;;;5057555;28;20088;-88
2023/02/26 03:43:54;;;;;;;7.20;1.40;;;1.90;99.90;;;;;;5042057;28;20032;-89
2023/02/26 03:46:33;;;;;;;6.53;1.30;;;1.90;99.90;;;;;;5040484;28;20029;-89
2023/02/26 03:49:07;;;;;;;5.47;1.63;;;1.80;99.90;;;;;;5058263;28;20025;-89
2023/02/26 03:51:34;;;;;;;5.72;1.33;;;1.90;99.90;;;;;;5040408;28;20021;-89
2023/02/26 03:54:22;;;;;;;5.90;1.13;;;1.80;99.90;;;;;;5040196;28;20017;-89
2023/02/26 03:56:49;;;;;;;7.55;1.30;;;1.80;99.90;;;;;;5040334;28;20048;-89
2023/02/26 03:59:16;;;;;;;10.05;1.70;;;1.80;99.90;;;;;;5040052;28;20021;-89
2023/02/26 04:01:55;;;;;;;6.68;1.65;;;1.80;99.90;;;;;;5039948;28;20042;-92
2023/02/26 04:04:27;;;;;;;9.90;1.23;;;1.80;99.90;;;;;;5057620;28;20025;-89
2023/02/26 04:06:54;;;;;;;6.22;1.30;;;1.70;99.90;;;;;;5039937;28;20052;-89
2023/02/26 04:09:21;;;;;;;4.70;1.23;;;1.80;99.90;;;;;;5040197;28;20029;-89
2023/02/26 04:11:51;;;;;;;7.55;1.40;;;1.70;99.90;;;;;;5039950;28;20040;-89
2023/02/26 04:14:17;;;;;;;8.77;1.55;;;1.70;99.90;;;;;;5057957;28;20029;-89
2023/02/26 04:16:44;;;;;;;6.68;2.05;;;1.70;99.90;;;;;;5041674;28;20021;-89
2023/02/26 04:19:09;;;;;;;7.68;1.20;;;1.70;99.90;;;;;;5045281;28;20025;-89
2023/02/26 04:21:35;;;;;;;8.27;1.70;;;1.70;99.90;;;;;;5062192;28;20021;-90
2023/02/26 04:24:01;;;;;;;9.57;1.67;;;1.70;99.90;;;;;;5043592;28;20029;-89
2023/02/26 04:26:27;;;;;;;9.80;1.52;;;1.70;99.90;;;;;;5039306;28;20041;-90
2023/02/26 04:28:56;;;;;;;10.63;1.50;;;1.60;99.90;;;;;;5039570;28;20025;-90
2023/02/26 04:31:21;;;;;;;8.73;1.60;;;1.60;99.90;;;;;;5038718;28;20057;-89
2023/02/26 04:33:50;;;;;;;6.72;1.27;;;1.60;99.90;;;;;;5038989;28;20052;-89
2023/02/26 04:36:16;;;;;;;10.50;1.30;;;1.60;99.90;;;;;;5041012;28;20036;-90
2023/02/26 04:38:42;;;;;;;5.53;1.17;;;1.60;99.90;;;;;;5058883;28;20025;-89
2023/02/26 04:41:07;;;;;;;5.50;1.10;;;1.60;99.90;;;;;;5042539;28;20025;-89
2023/02/26 04:43:33;;;;;;;9.18;2.38;;;1.60;99.90;;;;;;5042917;28;20033;-89
2023/02/26 04:45:59;;;;;;;5.57;1.20;;;1.60;99.90;;;;;;5042563;28;20024;-89
2023/02/26 04:48:25;;;;;;;5.95;1.10;;;1.50;99.90;;;;;;5040771;28;20023;-89
2023/02/26 04:50:51;;;;;;;6.82;1.35;;;1.50;99.90;;;;;;5040521;28;20093;-90
2023/02/26 04:53:48;;;;;;;6.32;1.05;;;1.50;99.90;;;;;;5039695;28;20024;-89
2023/02/26 04:56:17;;;;;;;9.30;1.30;;;1.50;99.90;;;;;;5038023;28;20029;-91
2023/02/26 04:58:42;;;;;;;8.85;1.40;;;1.50;99.90;;;;;;5040563;28;20048;-90
2023/02/26 05:01:08;;;;;;;4.68;1.10;;;1.50;99.90;;;;;;5040472;28;20461;-89
2023/02/26 05:03:39;;;;;;;6.45;1.30;;;1.40;99.90;;;;;;5039421;28;20052;-90
2023/02/26 05:06:05;;;;;;;3.72;0.95;;;1.50;99.90;;;;;;5039499;28;20495;-89
2023/02/26 05:08:34;;;;;;;3.97;1.00;;;1.40;99.90;;;;;;5039209;28;20025;-90
2023/02/26 05:10:59;;;;;;;9.07;1.17;;;1.40;99.90;;;;;;5039937;28;20037;-90
2023/02/26 05:13:26;;;;;;;6.38;1.45;;;1.40;99.90;;;;;;5040645;28;20128;-89
2023/02/26 05:15:55;;;;;;;4.90;0.98;;;1.40;99.90;;;;;;5039814;28;20021;-90
2023/02/26 05:18:20;;;;;;;6.32;1.17;;;1.40;99.90;;;;;;5039843;28;20388;-90
2023/02/26 05:20:54;;;;;;;6.68;1.35;;;1.40;99.90;;;;;;5044802;28;20025;-90
2023/02/26 05:23:20;;;;;;;4.70;1.10;;;1.40;99.90;;;;;;5039069;28;20037;-90
2023/02/26 05:25:56;;;;;;;5.75;1.15;;;1.40;99.90;;;;;;5038674;28;20017;-89
2023/02/26 05:28:22;;;;;;;6.93;1.05;;;1.40;99.90;;;;;;5022596;28;20064;-89
2023/02/26 05:30:48;;;;;;;7.75;2.03;;;1.40;99.90;;;;;;5018591;28;20018;-90
2023/02/26 05:33:14;;;;;;;10.82;1.48;;;1.40;99.90;;;;;;5019160;28;20551;-90
2023/02/26 05:35:40;;;;;;;5.00;1.23;;;1.40;99.90;;;;;;5018966;28;20021;-90
2023/02/26 05:38:06;;;;;;;4.68;0.73;;;1.30;99.90;;;;;;5019905;28;20116;-90
2023/02/26 05:40:34;;;;;;;5.38;1.20;;;1.40;99.90;;;;;;5056782;28;20021;-89
2023/02/26 05:43:00;;;;;;;8.93;1.48;;;1.30;99.90;;;;;;5040700;28;20088;-92
2023/02/26 05:45:26;;;;;;;7.13;1.73;;;1.40;99.90;;;;;;5042020;28;20013;-89
2023/02/26 05:47:55;;;;;;;9.07;1.20;;;1.30;99.90;;;;;;5025553;28;20014;-90
2023/02/26 05:50:20;;;;;;;2.38;0.80;;;1.30;99.90;;;;;;5041610;28;20010;-90
2023/02/26 05:52:46;;;;;;;7.68;1.25;;;1.30;99.90;;;;;;5037971;28;20049;-92
2023/02/26 05:55:12;;;;;;;5.82;1.63;;;1.30;99.90;;;;;;5023266;28;20029;-90
2023/02/26 05:57:37;;;;;;;3.47;1.00;;;1.30;99.90;;;;;;5002497;28;20030;-90
2023/02/26 06:00:05;;;;;;;6.80;1.40;;;1.30;99.90;;;;;;5018916;28;20049;-91
2023/02/26 06:02:33;;;;;;;5.90;1.60;;;1.30;99.90;;;;;;5018499;28;20473;-90
2023/02/26 06:05:04;;;;;;;4.25;1.23;;;1.30;99.90;;;;;;5001938;28;20036;-91
2023/02/26 06:07:30;;;;;;;7.60;1.48;;;1.30;99.90;;;;;;5018635;28;20024;-89
2023/02/26 06:09:56;;;;;;;6.60;1.02;;;1.20;99.90;;;;;;5001713;28;20037;-90
2023/02/26 06:12:24;;;;;;;6.43;0.82;;;1.20;99.90;;;;;;5001395;28;20064;-90
2023/02/26 06:14:50;;;;;;;8.18;1.60;;;1.20;99.90;;;;;;5017819;28;20029;-89
2023/02/26 06:17:19;;;;;;;3.80;0.80;;;1.20;99.90;;;;;;5018194;28;20021;-90
2023/02/26 06:19:47;;;;;;;6.93;1.17;;;1.20;99.90;;;;;;5018443;28;20558;-90
2023/02/26 06:22:13;;;;;;;7.53;1.13;;;1.20;99.90;;;;;;5001591;28;20551;-90
2023/02/26 06:24:39;;;;;;;2.97;0.70;;;1.20;99.90;;;;;;5018087;28;20118;-90
2023/02/26 06:27:04;;;;;;;5.65;1.25;;;1.20;99.90;;;;;;5023412;28;20077;-90
2023/02/26 06:29:30;;;;;;;6.75;0.90;;;1.20;99.90;;;;;;5037902;28;20025;-90
2023/02/26 06:31:56;;;;;;;6.38;0.88;;;1.20;99.90;;;;;;5037463;28;20025;-90
2023/02/26 06:34:22;;;;;;;4.97;1.00;;;1.20;99.90;;;;;;5038050;28;20427;-91
2023/02/26 06:36:51;;;;;;;7.72;1.55;;;1.20;99.90;;;;;;5037348;28;20021;-91
2023/02/26 06:39:17;;;;;;;5.65;1.08;;;1.20;99.90;;;;;;5054037;28;20104;-90
2023/02/26 06:41:42;;;;;;;6.07;1.13;;;1.20;99.90;;;;;;5037814;28;20107;-90
2023/02/26 06:44:10;;;;;;;6.95;1.10;;;1.20;99.90;;;;;;5037207;28;20064;-90
2023/02/26 06:46:39;;;;;;;5.88;1.00;;;1.20;99.90;;;;;;5037387;28;20025;-91
2023/02/26 06:49:08;;;;;;;3.47;0.95;;;1.30;99.90;;;;;;5037410;28;20023;-91
2023/02/26 06:51:35;;;;;;;8.77;1.58;;;1.20;99.90;;;;;;5037719;28;20554;-90
2023/02/26 06:54:01;;;;;;;9.35;1.45;;;1.20;99.90;;;;;;5036863;28;20039;-90
2023/02/26 06:56:27;;;;;;;5.15;1.33;;;1.30;99.90;;;;;;5036901;28;20499;-91
2023/02/26 06:58:52;;;;;;;3.97;1.05;;;1.20;99.90;;;;;;5037057;28;20022;-91
2023/02/26 07:01:21;;;;;;;6.35;1.40;;;1.20;99.90;;;;;;5036525;28;20029;-88
2023/02/26 07:03:48;;;;;;;6.70;0.93;;;1.20;99.90;;;;;;5036899;28;20444;-88
2023/02/26 07:06:18;;;;;;;8.13;0.98;;;1.20;99.90;;;;;;5036885;28;20032;-90
2023/02/26 07:08:51;;;;;;;2.50;1.00;;;1.30;99.90;;;;;;5059654;28;20047;-89
2023/02/26 07:11:17;;;;;;;2.97;0.60;;;1.30;99.90;;;;;;5055975;28;20021;-89
2023/02/26 07:13:42;;;;;;;4.88;0.88;;;1.30;99.90;;;;;;5043435;28;20039;-91
2023/02/26 07:16:08;;;;;;;3.15;0.90;;;1.30;99.90;;;;;;5040260;28;20083;-89
2023/02/26 07:18:36;;;;;;;6.85;0.93;;;1.30;99.90;;;;;;5048779;28;20058;-90
2023/02/26 07:21:06;;;;;;;5.35;0.88;;;1.30;99.90;;;;;;5053930;28;20048;-88
2023/02/26 07:23:38;;;;;;;10.45;2.10;;;1.30;99.90;;;;;;5038575;28;20116;-91
2023/02/26 07:26:28;;;;;;;;;;;;;;;;;;;;;
2023/02/26 07:29:04;;;;;;;3.85;1.38;;;1.40;99.90;;;;;;5039530;28;20123;-90
2023/02/26 07:31:35;;;;;;;4.22;1.27;;;1.30;99.90;;;;;;5038137;28;20039;-90
2023/02/26 07:34:07;;;;;;;4.53;1.00;;;1.40;99.90;;;;;;5018997;28;20026;-90
2023/02/26 07:36:32;;;;;;;3.83;0.80;;;1.40;99.90;;;;;;5003302;28;20025;-92
2023/02/26 07:38:58;;;;;;;4.80;0.75;;;1.40;99.90;;;;;;5017852;28;20414;-92
2023/02/26 07:41:24;;;;;;;6.05;0.90;;;1.50;99.90;;;;;;5019863;28;20049;-91
2023/02/26 07:43:52;;;;;;;5.82;0.95;;;1.40;99.90;;;;;;5020360;28;20026;-94
2023/02/26 07:46:18;;;;;;;8.93;1.25;;;1.50;99.90;;;;;;4994898;28;20030;-92
2023/02/26 07:48:46;;;;;;;3.78;0.77;;;1.50;99.90;;;;;;5020215;28;20022;-92
2023/02/26 07:51:12;;;;;;;4.13;1.00;;;1.50;99.90;;;;;;5020342;28;20033;-92
2023/02/26 07:53:48;;;;;;;5.72;0.80;;;1.50;99.90;;;;;;5023615;28;20037;-92
2023/02/26 07:56:14;;;;;;;5.82;1.83;;;1.60;99.90;;;;;;5031699;28;20017;-91
2023/02/26 07:58:48;;;;;;;4.45;1.00;;;1.60;99.90;;;;;;5021176;28;20071;-92
2023/02/26 08:01:14;;;;;;;4.20;1.10;;;1.60;99.90;;;;;;5021687;28;20060;-92
2023/02/26 08:03:40;;;;;;;1.70;0.80;;;1.70;99.90;;;;;;5040181;28;20117;-92
2023/02/26 08:06:07;;;;;;;5.90;1.00;;;1.70;99.90;;;;;;5021997;28;20072;-87
2023/02/26 08:08:35;;;;;;;4.57;1.20;;;1.70;99.90;;;;;;5007016;28;20017;-91
2023/02/26 08:11:01;;;;;;;3.70;0.88;;;1.80;99.90;;;;;;5046418;28;20022;-91
2023/02/26 08:13:27;;;;;;;3.50;0.80;;;1.80;99.90;;;;;;5006731;28;20061;-90
2023/02/26 08:15:53;;;;;;;5.20;1.05;;;1.80;99.90;;;;;;5023735;28;20044;-90
2023/02/26 08:18:19;;;;;;;4.90;1.00;;;1.90;99.90;;;;;;5022065;28;20021;-90
2023/02/26 08:20:45;;;;;;;4.82;1.33;;;1.90;99.90;;;;;;5020853;28;20018;-91
2023/02/26 08:23:11;;;;;;;4.28;1.23;;;1.90;99.90;;;;;;5019195;28;20096;-90
2023/02/26 08:25:38;;;;;;;6.13;1.15;;;2.00;99.90;;;;;;5020158;28;20030;-90
2023/02/26 08:28:04;;;;;;;3.35;1.20;;;2.00;99.90;;;;;;5019189;28;20045;-89
2023/02/26 08:30:30;;;;;;;7.07;0.95;;;2.00;99.90;;;;;;5003617;28;20017;-90
2023/02/26 08:32:55;;;;;;;2.65;0.90;;;2.10;99.90;;;;;;5019166;28;20124;-90
2023/02/26 08:35:21;;;;;;;7.05;1.17;;;2.10;99.90;;;;;;5003277;28;20135;-91
2023/02/26 08:37:50;;;;;;;3.00;0.70;;;2.10;99.90;;;;;;5019406;28;20029;-90
2023/02/26 08:40:15;;;;;;;5.72;0.80;;;2.20;99.90;;;;;;5019501;28;20457;-91
2023/02/26 08:42:41;;;;;;;4.00;1.00;;;2.20;99.90;;;;;;5019552;28;20032;-90
2023/02/26 08:45:08;;;;;;;3.45;0.75;;;2.30;99.90;;;;;;5019429;28;20021;-91
2023/02/26 08:47:33;;;;;;;1.77;0.82;;;2.30;99.90;;;;;;5003612;28;20025;-91
2023/02/26 08:49:59;;;;;;;4.90;1.05;;;2.40;99.90;;;;;;5005194;28;20120;-90
2023/02/26 08:52:25;;;;;;;3.88;0.90;;;2.40;99.90;;;;;;5026553;28;20022;-90
2023/02/26 08:54:51;;;;;;;5.22;1.00;;;2.40;99.90;;;;;;5042059;28;20029;-90
2023/02/26 08:57:17;;;;;;;4.10;1.02;;;2.50;99.90;;;;;;5039985;28;20049;-90
2023/02/26 08:59:43;;;;;;;4.47;1.05;;;2.50;99.90;;;;;;5038665;28;20086;-90
2023/02/26 09:02:12;;;;;;;3.75;0.70;;;2.50;99.90;;;;;;5022765;28;20005;-90
2023/02/26 09:04:38;;;;;;;5.50;1.30;;;2.60;99.90;;;;;;5014119;28;20029;-89
2023/02/26 09:07:04;;;;;;;7.82;1.08;;;2.60;99.90;;;;;;5021353;28;20018;-89
2023/02/26 09:09:30;;;;;;;6.43;1.30;;;2.70;99.90;;;;;;5002581;28;20053;-91
2023/02/26 09:11:56;;;;;;;3.70;0.90;;;2.70;99.90;;;;;;5018266;28;20021;-91
2023/02/26 09:14:21;;;;;;;10.43;2.55;;;2.70;99.90;;;;;;5018534;28;20102;-90
2023/02/26 09:16:50;;;;;;;5.32;0.82;;;2.80;99.90;;;;;;5018723;28;20442;-89
2023/02/26 09:19:16;;;;;;;4.40;1.00;;;2.80;99.90;;;;;;5017971;28;20036;-89
2023/02/26 09:21:43;;;;;;;5.05;1.35;;;2.90;99.90;;;;;;5018799;28;20018;-89
2023/02/26 09:24:13;;;;;;;5.90;0.95;;;3.00;99.90;;;;;;5017994;28;20030;-93
2023/02/26 09:26:39;;;;;;;5.85;1.65;;;3.00;99.90;;;;;;5018270;28;20017;-89
2023/02/26 09:29:05;;;;;;;6.38;1.60;;;3.00;99.90;;;;;;5018225;28;20136;-90
2023/02/26 09:31:31;;;;;;;2.55;0.55;;;3.10;99.90;;;;;;5020551;28;20064;-91
2023/02/26 09:33:57;;;;;;;2.75;0.93;;;3.20;99.90;;;;;;5004335;28;20044;-88
2023/02/26 09:36:27;;;;;;;4.95;1.20;;;3.20;99.90;;;;;;5002153;28;20025;-89
2023/02/26 09:38:53;;;;;;;4.40;0.80;;;3.30;99.90;;;;;;5005484;28;20028;-89
2023/02/26 09:41:31;;;;;;;5.95;1.00;;;3.30;99.90;;;;;;5020686;28;20033;-89
2023/02/26 09:44:16;;;;;;;4.53;0.90;;;3.40;99.90;;;;;;5021294;28;20030;-90
2023/02/26 09:46:45;;;;;;;4.65;0.77;;;3.50;99.90;;;;;;5019572;28;20120;-89
2023/02/26 09:49:35;;;;;;;6.32;0.80;;;3.50;99.90;;;;;;5019976;28;20461;-90
2023/02/26 09:52:33;;;;;;;10.88;1.05;;;3.60;99.90;;;;;;5020403;28;20028;-89
2023/02/26 09:55:04;;;;;;;3.38;0.70;;;3.60;99.90;;;;;;5019720;28;20366;-89
2023/02/26 09:57:33;;;;;;;1.88;0.40;;;3.70;99.90;;;;;;5019622;28;20032;-90
2023/02/26 10:00:00;;;;;;;3.17;0.75;;;3.80;99.90;;;;;;5019354;28;20327;-87
2023/02/26 10:02:38;;;;;;;2.97;0.60;;;3.80;99.90;;;;;;5019484;28;20116;-89
2023/02/26 10:05:09;;;;;;;3.00;0.82;;;3.90;99.90;;;;;;5020077;28;20112;-88
2023/02/26 10:08:04;;;;;;;4.75;0.73;;;4.00;99.90;;;;;;5017182;28;20029;-88
2023/02/26 10:10:47;;;;;;;3.78;0.77;;;4.10;99.90;;;;;;5010924;28;20123;-89
2023/02/26 10:13:27;;;;;;;6.10;0.70;;;4.20;99.90;;;;;;5018081;28;20059;-89
2023/02/26 10:15:56;;;;;;;4.55;0.95;;;4.30;99.90;;;;;;5017766;28;20033;-88
2023/02/26 10:18:33;;;;;;;2.63;0.60;;;4.40;99.90;;;;;;5017073;28;20021;-90
2023/02/26 10:21:23;;;;;;;4.40;0.73;;;4.50;99.90;;;;;;5017831;28;20032;-90
2023/02/26 10:23:55;;;;;;;2.88;1.27;;;4.50;99.90;;;;;;5016935;28;20164;-88
2023/02/26 10:26:35;;;;;;;2.13;0.55;;;4.60;99.90;;;;;;5017646;28;20029;-90
2023/02/26 10:29:25;;;;;;;3.30;0.60;;;4.70;99.90;;;;;;5016923;28;20046;-89
2023/02/26 10:32:01;;;;;;;4.33;0.63;;;4.80;99.90;;;;;;5017338;28;20029;-90
2023/02/26 10:34:50;;;;;;;2.88;0.80;;;4.90;99.90;;;;;;5017573;28;20029;-91
2023/02/26 10:37:20;;;;;;;2.03;0.57;;;5.00;99.90;;;;;;5017863;28;20028;-89
2023/02/26 10:40:00;;;;;;;3.13;0.73;;;5.10;99.90;;;;;;5018129;28;20362;-88
2023/02/26 10:42:38;;;;;;;2.15;0.55;;;5.20;99.90;;;;;;5018060;28;20021;-88
2023/02/26 10:45:26;;;;;;;3.50;0.90;;;5.30;99.90;;;;;;5017227;28;20021;-88
2023/02/26 10:48:16;;;;;;;4.88;0.63;;;5.40;99.90;;;;;;5017802;28;20089;-87
2023/02/26 10:50:52;;;;;;;3.35;0.80;;;5.50;99.90;;;;;;5017336;28;20033;-89
2023/02/26 10:53:20;;;;;;;3.75;0.90;;;5.60;99.90;;;;;;5017778;28;20076;-89
2023/02/26 10:55:52;;;;;;;5.15;0.80;;;5.70;99.90;;;;;;5017047;28;20061;-88
2023/02/26 10:58:23;;;;;;;10.98;1.70;;;5.80;99.90;;;;;;5017651;28;20049;-89
2023/02/26 11:00:55;;;;;;;4.88;0.70;;;5.90;99.90;;;;;;5017658;28;20068;-91
2023/02/26 11:03:30;;;;;;;5.85;0.80;;;5.90;99.90;;;;;;5016824;28;20072;-92
2023/02/26 11:05:57;;;;;;;1.50;0.55;;;6.00;99.70;;;;;;5017001;28;20026;-90
2023/02/26 11:08:26;;;;;;;3.08;0.88;;;6.10;99.80;;;;;;5017442;28;20446;-89
2023/02/26 11:11:05;;;;;;;2.22;1.00;;;6.10;99.20;;;;;;5017775;28;20022;-90
2023/02/26 11:13:33;;;;;;;3.63;0.98;;;6.20;99.90;;;;;;5002545;28;20105;-90
2023/02/26 11:16:13;;;;;;;2.60;0.90;;;6.30;99.20;;;;;;5017031;28;20022;-91
2023/02/26 11:18:45;;;;;;;3.97;1.08;;;6.40;99.60;;;;;;5016902;28;20377;-89
2023/02/26 11:21:24;;;;;;;4.82;0.90;;;6.50;99.90;;;;;;5016970;28;20025;-91
2023/02/26 11:24:18;;;;;;;6.03;1.13;;;6.60;97.30;;;;;;5017729;28;20474;-90
2023/02/26 11:26:47;;;;;;;3.15;0.93;;;6.70;97.60;;;;;;5017953;28;20032;-90
2023/02/26 11:29:17;;;;;;;4.43;1.00;;;6.80;97.90;;;;;;5017012;28;20048;-89
2023/02/26 11:31:49;;;;;;;8.00;1.00;;;6.90;98.00;;;;;;5022527;28;20021;-90
2023/02/26 11:34:15;;;;;;;5.55;1.23;;;7.00;98.80;;;;;;5048833;28;20021;-90
2023/02/26 11:36:43;;;;;;;3.83;0.80;;;7.10;98.50;;;;;;5019838;28;20031;-88
2023/02/26 11:39:15;;;;;;;1.80;0.75;;;7.20;98.50;;;;;;5037516;28;20017;-89
2023/02/26 11:41:45;;;;;;;4.88;0.68;;;7.40;97.90;;;;;;5040880;28;20080;-89
2023/02/26 11:44:21;;;;;;;2.83;0.73;;;7.50;97.80;;;;;;5024379;28;20113;-89
2023/02/26 11:46:56;;;;;;;5.43;0.93;;;7.60;96.30;;;;;;5040343;28;20029;-90
2023/02/26 11:49:27;;;;;;;1.10;0.70;;;7.70;95.80;;;;;;5050657;28;20155;-89
2023/02/26 11:52:14;;;;;;;3.78;1.20;;;7.70;95.60;;;;;;5057605;28;20025;-89
2023/02/26 11:54:39;;;;;;;2.83;0.90;;;7.80;93.90;;;;;;5040571;28;20119;-89
2023/02/26 11:57:15;;;;;;;5.20;1.23;;;7.80;93.40;;;;;;5040666;28;20155;-90
2023/02/26 11:59:43;;;;;;;1.75;0.50;;;7.90;92.80;;;;;;5040289;28;20029;-89
2023/02/26 12:02:14;;;;;;;2.53;0.70;;;7.90;93.90;;;;;;5033664;28;20030;-89
2023/02/26 12:04:43;;;;;;;4.32;0.90;;;8.00;92.70;;;;;;5059934;28;20020;-90
2023/02/26 12:07:15;;;;;;;2.30;0.60;;;8.10;92.70;;;;;;5062584;28;20071;-91
2023/02/26 12:09:45;;;;;;;3.42;0.90;;;8.20;90.70;;;;;;5062133;28;20017;-89
2023/02/26 12:12:49;;;;;;;1.93;0.60;;;8.20;92.40;;;;;;5060049;28;20020;-87
2023/02/26 12:15:39;;;;;;;1.25;0.80;;;8.30;90.50;;;;;;5058491;28;20291;-89
2023/02/26 12:18:07;;;;;;;4.13;1.95;;;8.40;90.60;;;;;;5049482;28;20044;-88
2023/02/26 12:21:16;;;;;;;2.85;0.68;;;8.40;90.90;;;;;;5040954;28;20036;-89
2023/02/26 12:24:02;;;;;;;3.92;0.80;;;8.50;89.60;;;;;;5036388;28;20075;-88
2023/02/26 12:27:00;;;;;;;4.78;0.80;;;8.60;90.70;;;;;;5040962;28;20111;-87
2023/02/26 12:29:51;;;;;;;2.38;0.50;;;8.70;90.30;;;;;;5021103;28;20061;-88
2023/02/26 12:32:22;;;;;;;1.23;0.70;;;8.80;90.00;;;;;;5020953;28;20473;-89
2023/02/26 12:35:14;;;;;;;1.75;0.57;;;8.90;89.90;;;;;;5030259;28;20287;-87
2023/02/26 12:37:57;;;;;;;3.00;0.73;;;8.90;90.40;;;;;;5034884;28;20127;-87
2023/02/26 12:40:29;;;;;;;4.00;0.93;;;9.00;90.70;;;;;;5039096;28;20025;-90
2023/02/26 12:43:17;;;;;;;2.20;0.50;;;9.20;91.10;;;;;;5056353;28;20017;-89
2023/02/26 12:46:00;;;;;;;2.38;0.70;;;9.30;90.90;;;;;;5029102;28;20025;-90
2023/02/26 12:48:57;;;;;;;5.75;0.90;;;9.40;90.10;;;;;;5018144;28;20390;-89
2023/02/26 12:51:46;;;;;;;1.33;0.80;;;9.50;87.20;;;;;;5011179;28;20076;-89
2023/02/26 12:54:34;;;;;;;3.58;0.88;;;9.50;87.80;;;;;;5019149;28;20564;-89
2023/02/26 12:57:22;;;;;;;4.18;0.82;;;9.60;86.40;;;;;;5018960;28;20026;-90
2023/02/26 13:00:00;;;;;;;2.50;0.57;;;9.70;86.90;;;;;;5037655;28;20025;-89
2023/02/26 13:02:32;;;;;;;3.17;0.70;;;9.70;84.90;;;;;;5039789;28;20033;-89
2023/02/26 13:05:31;;;;;;;1.38;0.35;;;9.80;84.50;;;;;;5038436;28;20136;-89
2023/02/26 13:08:03;;;;;;;4.50;0.60;;;9.80;82.60;;;;;;5039383;28;20481;-88
2023/02/26 13:11:08;;;;;;;1.27;0.60;;;9.90;81.90;;;;;;5040457;28;20036;-88
2023/02/26 13:13:56;;;;;;;1.67;0.60;;;9.90;79.60;;;;;;5057286;28;20059;-88
2023/02/26 13:16:31;;;;;;;3.95;0.80;;;9.90;79.70;;;;;;5038799;28;20040;-89
2023/02/26 13:19:21;;;;;;;2.35;0.90;;;10.00;80.10;;;;;;5039821;28;20029;-90
2023/02/26 13:21:59;;;;;;;2.65;0.80;;;10.00;79.30;;;;;;5039343;28;20025;-89
2023/02/26 13:24:46;;;;;;;1.15;0.43;;;10.00;80.30;;;;;;5038888;28;20039;-89
2023/02/26 13:27:15;;;;;;;1.52;0.50;;;10.10;80.30;;;;;;5038147;28;20048;-88